Atlantic - Newfoundland: Past 24 Hour Conditions

 

Port aux Basques

05:30 PM NST 08 February 2016
Disclaimer

This table is a summary of hourly weather conditions for the past 24 hours.
Please note that these observations might not always be representative of weather conditions over their associated marine area.

Date / Time
(NST)
Wind(knots) Conditions Visibility(km) Pressure(kPa) Air tempC) Relative humidity(%) Dew pointC) Wind Chill
08 February 2016
17:30 ENE 16 N/A 15 101.8 -6 68 -11 -14
16:30 ENE 16 gust 21 N/A 15 101.8 -6 68 -11 -14
15:30 ENE 19 gust 24 N/A 15 101.8 -6 67 -11 -15
14:30 E 17 N/A 15 102.0 -6 63 -12 -15
13:30 NE 13 N/A 15 102.1 -7 67 -12 -14
12:30 ENE 11 N/A 15 102.3 -7 67 -12 -14
11:30 NE 10 N/A 15 102.3 -8 67 -13 -15
10:30 ENE 10 gust 15 N/A 15 102.4 -8 65 -13 -15
9:30 ESE 3 N/A 15 102.4 -7 69 -12 -10
8:30 calm N/A 15 102.4 -8 70 -13 *
7:30 N 14 N/A 15 102.3 -9 71 -13 -17
6:30 N 10 N/A 15 102.4 -8 73 -12 -15
5:30 NNW 15 Light Snow 5 102.3 -7 73 -11 -16
4:30 NNW 12 gust 18 Light Snow 15 102.2 -7 74 -11 -14
3:30 NNW 20 gust 30 Light Snow 15 102.1 -6 72 -11 -16
2:30 NW 28 gust 35 N/A 15 102.0 -6 64 -11 -16
1:30 NW 34 gust 42 Light Snow 13 101.9 -5 75 -9 -16
0:30 WNW 35 gust 43 N/A 15 101.9 -6 67 -11 -17
07 February 2016
23:30 WNW 41 gust 50 N/A 15 101.8 -6 62 -12 -19
22:30 WNW 44 gust 54 N/A 4 101.7 -6 65 -12 -18
21:30 WNW 41 gust 49 N/A 13 101.7 -6 58 -13 -18
20:30 WNW 39 gust 49 N/A 13 101.7 -6 59 -12 -17
19:30 WNW 40 gust 46 N/A 15 101.6 -6 66 -11 -17
18:30 W 37 gust 52 N/A 6 101.4 -4 70 -9 -15
17:30 WNW 35 gust 45 Light Snow 0.3 101.3 -3 98 -4 -14

Zoom-in to make a selection

Map of Atlantic - Newfoundland marine weather areas Southwestern Grand Banks - 44138 Banquereau - 44139 Tail of the Bank - 44140 Nickerson Bank - 44251 Northeast Burgeo Bank - 44255 Blanc-Sablon Airport Cap Whittle Chevery Natashquan Airport Heath Point Miscou Island Grand Étang Ingonish Beach North Mountain St.Paul Island J.A. Douglas McCurdy Sydney Airport Charlottetown Airport East Point North Cape Argentia Bonavista Burgeo Cape Race Corner Brook Daniel's Harbour Englee Ferolle Point La Scie Port aux Basques Rocky Harbour Sagona Island St. Anthony Airport St. John's Int'l Airport St. Lawrence Stephenville Airport Twillingate Winterland Wreckhouse Cartwright Airport Mary's Harbour Grates Cove Pool's Island Marticot Island Long Pond Eskasoni (First Nations) Îles de la Madeleine Airport
Legend:
buoy Buoy
land station Land Station

Atlantic - Newfoundland Area

Another Region

What we are doing

Date modified: